sensor_id;sensor_type;location;lat;lon;timestamp;temperature;humidity
4406;DHT22;2216;53.806;11.598;2022-12-16T00:00:26;-2.30;80.10
4406;DHT22;2216;53.806;11.598;2022-12-16T00:02:52;-2.40;80.00
4406;DHT22;2216;53.806;11.598;2022-12-16T00:05:18;-2.30;80.10
4406;DHT22;2216;53.806;11.598;2022-12-16T00:07:47;-2.30;80.20
4406;DHT22;2216;53.806;11.598;2022-12-16T00:10:13;-2.40;80.10
4406;DHT22;2216;53.806;11.598;2022-12-16T00:12:39;-2.40;80.10
4406;DHT22;2216;53.806;11.598;2022-12-16T00:15:05;-2.40;80.10
4406;DHT22;2216;53.806;11.598;2022-12-16T00:17:31;-2.40;80.10
4406;DHT22;2216;53.806;11.598;2022-12-16T00:19:57;-2.40;80.10
4406;DHT22;2216;53.806;11.598;2022-12-16T00:22:22;-2.50;80.10
4406;DHT22;2216;53.806;11.598;2022-12-16T00:24:48;-2.40;80.20
4406;DHT22;2216;53.806;11.598;2022-12-16T00:27:14;-2.40;80.20
4406;DHT22;2216;53.806;11.598;2022-12-16T00:29:40;-2.40;80.10
4406;DHT22;2216;53.806;11.598;2022-12-16T00:32:05;-2.40;80.10
4406;DHT22;2216;53.806;11.598;2022-12-16T00:34:31;-2.40;80.00
4406;DHT22;2216;53.806;11.598;2022-12-16T00:36:58;-2.40;80.00
4406;DHT22;2216;53.806;11.598;2022-12-16T00:39:23;-2.50;79.90
4406;DHT22;2216;53.806;11.598;2022-12-16T00:41:50;-2.50;79.90
4406;DHT22;2216;53.806;11.598;2022-12-16T00:44:15;-2.50;79.90
4406;DHT22;2216;53.806;11.598;2022-12-16T00:46:41;-2.50;79.90
4406;DHT22;2216;53.806;11.598;2022-12-16T00:49:07;-2.60;79.80
4406;DHT22;2216;53.806;11.598;2022-12-16T00:51:33;-2.60;79.80
4406;DHT22;2216;53.806;11.598;2022-12-16T00:53:59;-2.60;79.80
4406;DHT22;2216;53.806;11.598;2022-12-16T00:56:24;-2.60;79.70
4406;DHT22;2216;53.806;11.598;2022-12-16T00:58:50;-2.70;79.60
4406;DHT22;2216;53.806;11.598;2022-12-16T01:01:16;-2.70;79.60
4406;DHT22;2216;53.806;11.598;2022-12-16T01:03:42;-2.70;79.60
4406;DHT22;2216;53.806;11.598;2022-12-16T01:06:13;-2.70;79.60
4406;DHT22;2216;53.806;11.598;2022-12-16T01:08:40;-2.80;79.50
4406;DHT22;2216;53.806;11.598;2022-12-16T01:11:13;-2.80;79.50
4406;DHT22;2216;53.806;11.598;2022-12-16T01:13:40;-2.80;79.60
4406;DHT22;2216;53.806;11.598;2022-12-16T01:16:06;-3.00;79.40
4406;DHT22;2216;53.806;11.598;2022-12-16T01:18:32;-2.90;79.50
4406;DHT22;2216;53.806;11.598;2022-12-16T01:21:02;-3.00;79.40
4406;DHT22;2216;53.806;11.598;2022-12-16T01:23:29;-3.00;79.40
4406;DHT22;2216;53.806;11.598;2022-12-16T01:25:58;-3.10;79.30
4406;DHT22;2216;53.806;11.598;2022-12-16T01:28:25;-3.10;79.20
4406;DHT22;2216;53.806;11.598;2022-12-16T01:30:58;-3.20;79.20
4406;DHT22;2216;53.806;11.598;2022-12-16T01:33:29;-3.20;79.20
4406;DHT22;2216;53.806;11.598;2022-12-16T01:36:00;-3.20;79.10
4406;DHT22;2216;53.806;11.598;2022-12-16T01:38:28;-3.30;79.10
4406;DHT22;2216;53.806;11.598;2022-12-16T01:40:54;-3.40;79.10
4406;DHT22;2216;53.806;11.598;2022-12-16T01:43:24;-3.40;79.00
4406;DHT22;2216;53.806;11.598;2022-12-16T01:45:57;-3.40;79.00
4406;DHT22;2216;53.806;11.598;2022-12-16T01:51:37;-3.50;79.10
4406;DHT22;2216;53.806;11.598;2022-12-16T01:56:44;-3.70;78.90
4406;DHT22;2216;53.806;11.598;2022-12-16T01:59:14;-3.80;78.80
4406;DHT22;2216;53.806;11.598;2022-12-16T02:01:41;-3.80;78.70
4406;DHT22;2216;53.806;11.598;2022-12-16T02:04:07;-3.90;78.70
4406;DHT22;2216;53.806;11.598;2022-12-16T02:06:33;-3.90;78.80
4406;DHT22;2216;53.806;11.598;2022-12-16T02:09:02;-4.00;78.60
4406;DHT22;2216;53.806;11.598;2022-12-16T02:14:37;-4.20;78.60
4406;DHT22;2216;53.806;11.598;2022-12-16T02:26:22;-4.40;78.90
4406;DHT22;2216;53.806;11.598;2022-12-16T02:29:36;-4.40;79.10
4406;DHT22;2216;53.806;11.598;2022-12-16T02:32:52;-4.50;79.10
4406;DHT22;2216;53.806;11.598;2022-12-16T02:35:45;-4.50;79.30
4406;DHT22;2216;53.806;11.598;2022-12-16T02:38:31;-4.50;79.40
4406;DHT22;2216;53.806;11.598;2022-12-16T02:41:17;-4.50;79.50
4406;DHT22;2216;53.806;11.598;2022-12-16T02:43:57;-4.50;79.60
4406;DHT22;2216;53.806;11.598;2022-12-16T02:46:27;-4.50;79.60
4406;DHT22;2216;53.806;11.598;2022-12-16T02:48:55;-4.50;79.70
4406;DHT22;2216;53.806;11.598;2022-12-16T02:51:23;-4.50;79.70
4406;DHT22;2216;53.806;11.598;2022-12-16T02:53:51;-4.50;79.80
4406;DHT22;2216;53.806;11.598;2022-12-16T02:59:29;-4.50;79.90
4406;DHT22;2216;53.806;11.598;2022-12-16T03:04:45;-4.40;79.90
4406;DHT22;2216;53.806;11.598;2022-12-16T03:07:16;-4.40;79.90
4406;DHT22;2216;53.806;11.598;2022-12-16T03:09:44;-4.40;80.00
4406;DHT22;2216;53.806;11.598;2022-12-16T03:12:13;-4.40;80.00
4406;DHT22;2216;53.806;11.598;2022-12-16T03:14:43;-4.40;80.00
4406;DHT22;2216;53.806;11.598;2022-12-16T03:17:12;-4.30;80.80
4406;DHT22;2216;53.806;11.598;2022-12-16T03:19:42;-4.30;80.10
4406;DHT22;2216;53.806;11.598;2022-12-16T03:22:16;-4.30;80.10
4406;DHT22;2216;53.806;11.598;2022-12-16T03:24:45;-4.30;80.20
4406;DHT22;2216;53.806;11.598;2022-12-16T03:27:20;-4.30;80.10
4406;DHT22;2216;53.806;11.598;2022-12-16T03:35:28;-4.20;80.10
4406;DHT22;2216;53.806;11.598;2022-12-16T03:37:58;-4.20;80.10
4406;DHT22;2216;53.806;11.598;2022-12-16T03:40:27;-4.20;80.10
4406;DHT22;2216;53.806;11.598;2022-12-16T03:42:54;-4.20;80.00
4406;DHT22;2216;53.806;11.598;2022-12-16T03:45:26;-4.20;80.00
4406;DHT22;2216;53.806;11.598;2022-12-16T03:47:57;-4.20;79.90
4406;DHT22;2216;53.806;11.598;2022-12-16T03:50:29;-4.20;80.00
4406;DHT22;2216;53.806;11.598;2022-12-16T03:52:57;-4.20;80.00
4406;DHT22;2216;53.806;11.598;2022-12-16T03:55:23;-4.20;80.10
4406;DHT22;2216;53.806;11.598;2022-12-16T03:57:49;-4.10;80.20
4406;DHT22;2216;53.806;11.598;2022-12-16T04:00:15;-4.10;80.30
4406;DHT22;2216;53.806;11.598;2022-12-16T04:02:41;-4.10;80.30
4406;DHT22;2216;53.806;11.598;2022-12-16T04:05:07;-4.00;80.50
4406;DHT22;2216;53.806;11.598;2022-12-16T04:07:33;-4.00;80.50
4406;DHT22;2216;53.806;11.598;2022-12-16T04:09:59;-3.90;80.60
4406;DHT22;2216;53.806;11.598;2022-12-16T04:12:24;-3.90;80.60
4406;DHT22;2216;53.806;11.598;2022-12-16T04:15:09;-3.90;80.60
4406;DHT22;2216;53.806;11.598;2022-12-16T04:17:53;-3.80;80.60
4406;DHT22;2216;53.806;11.598;2022-12-16T04:20:41;-3.80;80.60
4406;DHT22;2216;53.806;11.598;2022-12-16T04:23:29;-3.80;80.40
4406;DHT22;2216;53.806;11.598;2022-12-16T04:26:15;-3.70;80.50
4406;DHT22;2216;53.806;11.598;2022-12-16T04:28:41;-3.70;80.40
4406;DHT22;2216;53.806;11.598;2022-12-16T04:31:07;-3.70;80.40
4406;DHT22;2216;53.806;11.598;2022-12-16T04:33:32;-3.70;80.40
4406;DHT22;2216;53.806;11.598;2022-12-16T04:36:17;-3.70;80.50
4406;DHT22;2216;53.806;11.598;2022-12-16T04:39:02;-3.60;80.50
4406;DHT22;2216;53.806;11.598;2022-12-16T04:41:50;-3.60;80.50
4406;DHT22;2216;53.806;11.598;2022-12-16T04:44:49;-3.60;80.50
4406;DHT22;2216;53.806;11.598;2022-12-16T04:47:33;-3.60;80.40
4406;DHT22;2216;53.806;11.598;2022-12-16T04:50:17;-3.60;80.50
4406;DHT22;2216;53.806;11.598;2022-12-16T04:53:01;-3.50;80.60
4406;DHT22;2216;53.806;11.598;2022-12-16T04:55:45;-3.50;80.60
4406;DHT22;2216;53.806;11.598;2022-12-16T04:58:29;-3.50;81.20
4406;DHT22;2216;53.806;11.598;2022-12-16T05:01:13;-3.50;80.50
4406;DHT22;2216;53.806;11.598;2022-12-16T05:03:58;-3.40;80.70
4406;DHT22;2216;53.806;11.598;2022-12-16T05:06:42;-3.40;80.60
4406;DHT22;2216;53.806;11.598;2022-12-16T05:09:26;-3.40;80.60
4406;DHT22;2216;53.806;11.598;2022-12-16T05:12:10;-3.40;80.60
4406;DHT22;2216;53.806;11.598;2022-12-16T05:14:54;-3.30;80.70
4406;DHT22;2216;53.806;11.598;2022-12-16T05:17:38;-3.30;80.70
4406;DHT22;2216;53.806;11.598;2022-12-16T05:20:22;-3.30;80.70
4406;DHT22;2216;53.806;11.598;2022-12-16T05:23:06;-3.20;80.80
4406;DHT22;2216;53.806;11.598;2022-12-16T05:25:50;-3.20;80.80
4406;DHT22;2216;53.806;11.598;2022-12-16T05:28:35;-3.10;80.80
4406;DHT22;2216;53.806;11.598;2022-12-16T05:31:19;-3.10;80.80
4406;DHT22;2216;53.806;11.598;2022-12-16T05:34:03;-3.00;80.80
4406;DHT22;2216;53.806;11.598;2022-12-16T05:36:47;-3.00;80.80
4406;DHT22;2216;53.806;11.598;2022-12-16T05:39:31;-3.00;80.80
4406;DHT22;2216;53.806;11.598;2022-12-16T05:42:16;-2.90;80.80
4406;DHT22;2216;53.806;11.598;2022-12-16T05:45:20;-2.90;80.70
4406;DHT22;2216;53.806;11.598;2022-12-16T05:48:04;-2.90;80.70
4406;DHT22;2216;53.806;11.598;2022-12-16T05:50:48;-2.80;80.80
4406;DHT22;2216;53.806;11.598;2022-12-16T05:53:33;-2.90;80.60
4406;DHT22;2216;53.806;11.598;2022-12-16T05:56:17;-2.80;80.70
4406;DHT22;2216;53.806;11.598;2022-12-16T05:59:01;-2.80;80.70
4406;DHT22;2216;53.806;11.598;2022-12-16T06:01:45;-2.80;80.70
4406;DHT22;2216;53.806;11.598;2022-12-16T06:04:49;-2.80;80.70
4406;DHT22;2216;53.806;11.598;2022-12-16T06:07:33;-2.70;80.90
4406;DHT22;2216;53.806;11.598;2022-12-16T06:10:18;-2.80;80.60
4406;DHT22;2216;53.806;11.598;2022-12-16T06:13:02;-2.70;80.70
4406;DHT22;2216;53.806;11.598;2022-12-16T06:15:46;-2.70;80.60
4406;DHT22;2216;53.806;11.598;2022-12-16T06:18:31;-2.80;80.60
4406;DHT22;2216;53.806;11.598;2022-12-16T06:21:15;-2.70;80.60
4406;DHT22;2216;53.806;11.598;2022-12-16T06:23:59;-2.70;80.60
4406;DHT22;2216;53.806;11.598;2022-12-16T06:26:43;-2.60;80.70
4406;DHT22;2216;53.806;11.598;2022-12-16T06:29:27;-2.60;80.70
4406;DHT22;2216;53.806;11.598;2022-12-16T06:32:12;-2.50;80.80
4406;DHT22;2216;53.806;11.598;2022-12-16T06:34:55;-2.60;80.70
4406;DHT22;2216;53.806;11.598;2022-12-16T06:37:39;-2.60;80.70
4406;DHT22;2216;53.806;11.598;2022-12-16T06:40:23;-2.60;80.70
4406;DHT22;2216;53.806;11.598;2022-12-16T06:43:07;-2.50;80.70
4406;DHT22;2216;53.806;11.598;2022-12-16T06:45:52;-2.50;80.70
4406;DHT22;2216;53.806;11.598;2022-12-16T06:48:36;-2.50;80.70
4406;DHT22;2216;53.806;11.598;2022-12-16T06:51:20;-2.50;80.70
4406;DHT22;2216;53.806;11.598;2022-12-16T06:54:04;-2.50;80.70
4406;DHT22;2216;53.806;11.598;2022-12-16T06:56:48;-2.50;80.60
4406;DHT22;2216;53.806;11.598;2022-12-16T06:59:32;-2.40;80.70
4406;DHT22;2216;53.806;11.598;2022-12-16T07:02:16;-2.40;80.70
4406;DHT22;2216;53.806;11.598;2022-12-16T07:05:00;-2.40;80.70
4406;DHT22;2216;53.806;11.598;2022-12-16T07:07:50;-2.30;80.80
4406;DHT22;2216;53.806;11.598;2022-12-16T07:10:35;-2.30;80.80
4406;DHT22;2216;53.806;11.598;2022-12-16T07:13:19;-2.30;80.80
4406;DHT22;2216;53.806;11.598;2022-12-16T07:16:04;-2.30;80.90
4406;DHT22;2216;53.806;11.598;2022-12-16T07:18:48;-2.30;80.90
4406;DHT22;2216;53.806;11.598;2022-12-16T07:21:32;-2.20;80.90
4406;DHT22;2216;53.806;11.598;2022-12-16T07:24:16;-2.20;81.00
4406;DHT22;2216;53.806;11.598;2022-12-16T07:27:00;-2.20;80.90
4406;DHT22;2216;53.806;11.598;2022-12-16T07:29:44;-2.20;80.90
4406;DHT22;2216;53.806;11.598;2022-12-16T07:32:29;-2.10;80.90
4406;DHT22;2216;53.806;11.598;2022-12-16T07:35:13;-2.10;80.90
4406;DHT22;2216;53.806;11.598;2022-12-16T07:37:57;-2.10;80.90
4406;DHT22;2216;53.806;11.598;2022-12-16T07:40:41;-2.00;81.00
4406;DHT22;2216;53.806;11.598;2022-12-16T07:43:25;-2.00;81.00
4406;DHT22;2216;53.806;11.598;2022-12-16T07:46:09;-2.00;80.90
4406;DHT22;2216;53.806;11.598;2022-12-16T07:48:53;-2.00;81.00
4406;DHT22;2216;53.806;11.598;2022-12-16T07:51:38;-1.90;81.00
4406;DHT22;2216;53.806;11.598;2022-12-16T07:54:22;-1.90;81.00
4406;DHT22;2216;53.806;11.598;2022-12-16T07:57:06;-1.90;81.10
4406;DHT22;2216;53.806;11.598;2022-12-16T07:59:50;-1.80;81.10
4406;DHT22;2216;53.806;11.598;2022-12-16T08:02:34;-1.80;81.10
4406;DHT22;2216;53.806;11.598;2022-12-16T08:05:18;-1.80;81.10
4406;DHT22;2216;53.806;11.598;2022-12-16T08:08:02;-1.70;81.20
4406;DHT22;2216;53.806;11.598;2022-12-16T08:10:46;-1.70;81.20
4406;DHT22;2216;53.806;11.598;2022-12-16T08:13:30;-1.70;81.20
4406;DHT22;2216;53.806;11.598;2022-12-16T08:16:14;-1.60;81.30
4406;DHT22;2216;53.806;11.598;2022-12-16T08:18:58;-1.60;81.20
4406;DHT22;2216;53.806;11.598;2022-12-16T08:21:42;-1.60;81.20
4406;DHT22;2216;53.806;11.598;2022-12-16T08:24:47;-1.50;81.30
4406;DHT22;2216;53.806;11.598;2022-12-16T08:27:31;-1.50;81.30
4406;DHT22;2216;53.806;11.598;2022-12-16T08:30:15;-1.50;81.20
4406;DHT22;2216;53.806;11.598;2022-12-16T08:32:59;-1.40;81.30
4406;DHT22;2216;53.806;11.598;2022-12-16T08:35:43;-1.40;81.30
4406;DHT22;2216;53.806;11.598;2022-12-16T08:38:27;-1.30;81.40
4406;DHT22;2216;53.806;11.598;2022-12-16T08:41:11;-1.30;81.40
4406;DHT22;2216;53.806;11.598;2022-12-16T08:43:55;-1.20;81.50
4406;DHT22;2216;53.806;11.598;2022-12-16T08:46:40;-1.20;81.50
4406;DHT22;2216;53.806;11.598;2022-12-16T08:49:24;-1.20;81.50
4406;DHT22;2216;53.806;11.598;2022-12-16T08:52:08;-1.10;81.60
4406;DHT22;2216;53.806;11.598;2022-12-16T08:54:52;-1.10;81.60
4406;DHT22;2216;53.806;11.598;2022-12-16T08:57:36;-0.80;81.90
4406;DHT22;2216;53.806;11.598;2022-12-16T09:00:20;-1.00;81.70
4406;DHT22;2216;53.806;11.598;2022-12-16T09:03:05;-0.90;81.80
4406;DHT22;2216;53.806;11.598;2022-12-16T09:05:49;-0.90;81.80
4406;DHT22;2216;53.806;11.598;2022-12-16T09:08:33;-0.80;81.90
4406;DHT22;2216;53.806;11.598;2022-12-16T09:11:17;-0.80;81.90
4406;DHT22;2216;53.806;11.598;2022-12-16T09:14:01;-0.70;82.10
4406;DHT22;2216;53.806;11.598;2022-12-16T09:16:45;-0.70;82.10
4406;DHT22;2216;53.806;11.598;2022-12-16T09:19:30;-0.60;82.90
4406;DHT22;2216;53.806;11.598;2022-12-16T09:22:15;-0.50;82.20
4406;DHT22;2216;53.806;11.598;2022-12-16T09:24:59;-0.50;82.20
4406;DHT22;2216;53.806;11.598;2022-12-16T09:27:43;-0.40;82.20
4406;DHT22;2216;53.806;11.598;2022-12-16T09:30:27;-0.30;82.30
4406;DHT22;2216;53.806;11.598;2022-12-16T09:33:11;-0.20;82.30
4406;DHT22;2216;53.806;11.598;2022-12-16T09:35:55;-0.20;82.30
4406;DHT22;2216;53.806;11.598;2022-12-16T09:38:39;-0.10;82.20
4406;DHT22;2216;53.806;11.598;2022-12-16T09:47:39;0.00;82.10
4406;DHT22;2216;53.806;11.598;2022-12-16T09:50:27;0.10;82.10
4406;DHT22;2216;53.806;11.598;2022-12-16T09:53:18;0.10;82.10
4406;DHT22;2216;53.806;11.598;2022-12-16T09:56:15;0.10;82.00
4406;DHT22;2216;53.806;11.598;2022-12-16T09:59:04;0.10;81.90
4406;DHT22;2216;53.806;11.598;2022-12-16T10:01:50;0.20;81.90
4406;DHT22;2216;53.806;11.598;2022-12-16T10:04:35;0.20;81.90
4406;DHT22;2216;53.806;11.598;2022-12-16T10:07:20;0.40;81.90
4406;DHT22;2216;53.806;11.598;2022-12-16T10:10:28;0.20;81.80
4406;DHT22;2216;53.806;11.598;2022-12-16T10:13:36;0.20;81.70
4406;DHT22;2216;53.806;11.598;2022-12-16T10:19:59;0.30;81.80
4406;DHT22;2216;53.806;11.598;2022-12-16T10:26:22;0.40;81.90
4406;DHT22;2216;53.806;11.598;2022-12-16T10:29:19;0.40;81.90
4406;DHT22;2216;53.806;11.598;2022-12-16T10:32:23;0.40;81.80
4406;DHT22;2216;53.806;11.598;2022-12-16T10:35:19;0.40;81.80
4406;DHT22;2216;53.806;11.598;2022-12-16T10:38:17;0.50;81.80
4406;DHT22;2216;53.806;11.598;2022-12-16T10:41:05;0.50;82.50
4406;DHT22;2216;53.806;11.598;2022-12-16T10:43:51;0.50;81.90
4406;DHT22;2216;53.806;11.598;2022-12-16T10:46:37;0.50;81.90
4406;DHT22;2216;53.806;11.598;2022-12-16T10:49:21;0.60;82.00
4406;DHT22;2216;53.806;11.598;2022-12-16T10:52:05;0.60;82.00
4406;DHT22;2216;53.806;11.598;2022-12-16T11:01:29;0.70;81.90
4406;DHT22;2216;53.806;11.598;2022-12-16T11:04:35;0.70;81.90
4406;DHT22;2216;53.806;11.598;2022-12-16T11:07:39;0.90;82.00
4406;DHT22;2216;53.806;11.598;2022-12-16T11:13:26;0.90;81.70
4406;DHT22;2216;53.806;11.598;2022-12-16T11:16:26;0.70;81.60
4406;DHT22;2216;53.806;11.598;2022-12-16T11:19:25;0.80;81.70
4406;DHT22;2216;53.806;11.598;2022-12-16T11:22:20;0.70;81.70
4406;DHT22;2216;53.806;11.598;2022-12-16T11:25:14;0.80;81.90
4406;DHT22;2216;53.806;11.598;2022-12-16T11:28:16;0.80;81.90
4406;DHT22;2216;53.806;11.598;2022-12-16T11:31:09;0.80;82.00
4406;DHT22;2216;53.806;11.598;2022-12-16T11:33:57;0.80;82.00
4406;DHT22;2216;53.806;11.598;2022-12-16T11:36:43;0.90;82.00
4406;DHT22;2216;53.806;11.598;2022-12-16T11:39:29;0.90;82.00
4406;DHT22;2216;53.806;11.598;2022-12-16T11:42:24;0.90;82.00
4406;DHT22;2216;53.806;11.598;2022-12-16T11:45:15;0.90;82.10
4406;DHT22;2216;53.806;11.598;2022-12-16T11:48:28;1.00;82.10
4406;DHT22;2216;53.806;11.598;2022-12-16T11:51:20;1.00;82.20
4406;DHT22;2216;53.806;11.598;2022-12-16T11:54:22;1.10;82.30
4406;DHT22;2216;53.806;11.598;2022-12-16T12:00:02;1.20;82.40
4406;DHT22;2216;53.806;11.598;2022-12-16T12:03:09;1.20;82.40
4406;DHT22;2216;53.806;11.598;2022-12-16T12:06:12;1.30;82.40
4406;DHT22;2216;53.806;11.598;2022-12-16T12:15:26;1.30;82.20
4406;DHT22;2216;53.806;11.598;2022-12-16T12:18:52;1.40;82.20
4406;DHT22;2216;53.806;11.598;2022-12-16T12:22:00;1.40;82.20
4406;DHT22;2216;53.806;11.598;2022-12-16T12:35:07;1.50;82.20
4406;DHT22;2216;53.806;11.598;2022-12-16T12:38:18;1.50;82.20
4406;DHT22;2216;53.806;11.598;2022-12-16T12:41:12;1.60;82.30
4406;DHT22;2216;53.806;11.598;2022-12-16T12:44:13;1.60;82.30
4406;DHT22;2216;53.806;11.598;2022-12-16T12:47:12;1.70;82.40
4406;DHT22;2216;53.806;11.598;2022-12-16T12:49:58;1.70;82.30
4406;DHT22;2216;53.806;11.598;2022-12-16T12:56:46;1.70;82.20
4406;DHT22;2216;53.806;11.598;2022-12-16T13:00:02;1.70;82.10
4406;DHT22;2216;53.806;11.598;2022-12-16T13:02:54;1.70;82.00
4406;DHT22;2216;53.806;11.598;2022-12-16T13:05:45;1.60;81.80
4406;DHT22;2216;53.806;11.598;2022-12-16T13:11:35;1.60;81.70
4406;DHT22;2216;53.806;11.598;2022-12-16T13:17:14;1.60;81.60
4406;DHT22;2216;53.806;11.598;2022-12-16T13:20:43;1.60;81.50
4406;DHT22;2216;53.806;11.598;2022-12-16T13:23:46;1.60;81.30
4406;DHT22;2216;53.806;11.598;2022-12-16T13:26:33;1.50;81.20
4406;DHT22;2216;53.806;11.598;2022-12-16T13:29:22;1.50;81.20
4406;DHT22;2216;53.806;11.598;2022-12-16T13:35:14;1.40;81.20
4406;DHT22;2216;53.806;11.598;2022-12-16T13:41:08;1.30;81.20
4406;DHT22;2216;53.806;11.598;2022-12-16T13:44:52;1.30;81.10
4406;DHT22;2216;53.806;11.598;2022-12-16T13:47:57;1.20;81.10
4406;DHT22;2216;53.806;11.598;2022-12-16T13:50:42;1.20;80.90
4406;DHT22;2216;53.806;11.598;2022-12-16T13:53:42;1.10;80.80
4406;DHT22;2216;53.806;11.598;2022-12-16T13:56:38;1.00;80.70
4406;DHT22;2216;53.806;11.598;2022-12-16T13:59:27;1.00;80.70
4406;DHT22;2216;53.806;11.598;2022-12-16T14:02:19;0.90;80.70
4406;DHT22;2216;53.806;11.598;2022-12-16T14:05:21;0.90;80.60
4406;DHT22;2216;53.806;11.598;2022-12-16T14:08:15;0.80;80.60
4406;DHT22;2216;53.806;11.598;2022-12-16T14:11:07;0.80;80.60
4406;DHT22;2216;53.806;11.598;2022-12-16T14:14:09;0.70;80.50
4406;DHT22;2216;53.806;11.598;2022-12-16T14:17:03;0.70;80.50
4406;DHT22;2216;53.806;11.598;2022-12-16T14:19:59;0.60;80.40
4406;DHT22;2216;53.806;11.598;2022-12-16T14:22:57;0.50;80.30
4406;DHT22;2216;53.806;11.598;2022-12-16T14:25:46;0.50;80.30
4406;DHT22;2216;53.806;11.598;2022-12-16T14:28:40;0.40;80.30
4406;DHT22;2216;53.806;11.598;2022-12-16T14:37:12;0.20;80.30
4406;DHT22;2216;53.806;11.598;2022-12-16T14:39:58;0.10;80.20
4406;DHT22;2216;53.806;11.598;2022-12-16T14:42:42;0.10;80.20
4406;DHT22;2216;53.806;11.598;2022-12-16T14:45:35;0.00;80.20
4406;DHT22;2216;53.806;11.598;2022-12-16T14:54:37;-0.10;80.20
4406;DHT22;2216;53.806;11.598;2022-12-16T14:57:42;-0.20;80.20
4406;DHT22;2216;53.806;11.598;2022-12-16T15:00:26;-0.20;80.20
4406;DHT22;2216;53.806;11.598;2022-12-16T15:06:03;-0.40;80.10
4406;DHT22;2216;53.806;11.598;2022-12-16T15:08:53;-0.40;80.10
4406;DHT22;2216;53.806;11.598;2022-12-16T15:11:41;-0.40;80.10
4406;DHT22;2216;53.806;11.598;2022-12-16T15:14:29;-0.50;80.10
4406;DHT22;2216;53.806;11.598;2022-12-16T15:17:20;-0.50;80.10
4406;DHT22;2216;53.806;11.598;2022-12-16T15:20:16;-0.60;80.00
4406;DHT22;2216;53.806;11.598;2022-12-16T15:23:01;-0.60;80.10
4406;DHT22;2216;53.806;11.598;2022-12-16T15:25:52;-0.70;80.00
4406;DHT22;2216;53.806;11.598;2022-12-16T15:28:41;-0.70;80.10
4406;DHT22;2216;53.806;11.598;2022-12-16T15:31:39;-0.80;80.10
4406;DHT22;2216;53.806;11.598;2022-12-16T15:34:35;-0.80;80.10
4406;DHT22;2216;53.806;11.598;2022-12-16T15:37:36;-0.90;80.00
4406;DHT22;2216;53.806;11.598;2022-12-16T15:40:32;-0.90;80.00
4406;DHT22;2216;53.806;11.598;2022-12-16T15:43:31;-1.00;80.00
4406;DHT22;2216;53.806;11.598;2022-12-16T15:46:25;-1.10;79.90
4406;DHT22;2216;53.806;11.598;2022-12-16T15:49:37;-0.90;80.00
4406;DHT22;2216;53.806;11.598;2022-12-16T15:52:41;-1.20;80.50
4406;DHT22;2216;53.806;11.598;2022-12-16T15:55:37;-1.20;79.80
4406;DHT22;2216;53.806;11.598;2022-12-16T15:58:34;-1.30;79.70
4406;DHT22;2216;53.806;11.598;2022-12-16T16:01:38;-1.40;79.70
4406;DHT22;2216;53.806;11.598;2022-12-16T16:04:25;-1.40;79.70
4406;DHT22;2216;53.806;11.598;2022-12-16T16:07:20;-1.50;79.60
4406;DHT22;2216;53.806;11.598;2022-12-16T16:10:21;-1.60;79.60
4406;DHT22;2216;53.806;11.598;2022-12-16T16:13:08;-1.60;79.70
4406;DHT22;2216;53.806;11.598;2022-12-16T16:15:53;-1.70;79.60
4406;DHT22;2216;53.806;11.598;2022-12-16T16:18:39;-1.80;79.50
4406;DHT22;2216;53.806;11.598;2022-12-16T16:21:25;-1.80;79.50
4406;DHT22;2216;53.806;11.598;2022-12-16T16:24:10;-1.90;79.40
4406;DHT22;2216;53.806;11.598;2022-12-16T16:26:55;-2.00;79.40
4406;DHT22;2216;53.806;11.598;2022-12-16T16:29:41;-2.00;79.40
4406;DHT22;2216;53.806;11.598;2022-12-16T16:32:25;-2.10;79.40
4406;DHT22;2216;53.806;11.598;2022-12-16T16:35:09;-2.20;79.40
4406;DHT22;2216;53.806;11.598;2022-12-16T16:37:53;-2.20;79.50
4406;DHT22;2216;53.806;11.598;2022-12-16T16:40:41;-2.30;80.20
4406;DHT22;2216;53.806;11.598;2022-12-16T16:43:27;-2.30;79.60
4406;DHT22;2216;53.806;11.598;2022-12-16T16:46:36;-2.40;79.60
4406;DHT22;2216;53.806;11.598;2022-12-16T16:49:31;-2.40;79.60
4406;DHT22;2216;53.806;11.598;2022-12-16T16:52:20;-2.50;79.60
4406;DHT22;2216;53.806;11.598;2022-12-16T16:55:06;-2.50;79.70
4406;DHT22;2216;53.806;11.598;2022-12-16T16:57:51;-2.50;79.70
4406;DHT22;2216;53.806;11.598;2022-12-16T17:00:35;-2.50;80.50
4406;DHT22;2216;53.806;11.598;2022-12-16T17:03:19;-2.60;79.80
4406;DHT22;2216;53.806;11.598;2022-12-16T17:06:04;-2.60;79.80
4406;DHT22;2216;53.806;11.598;2022-12-16T17:08:48;-2.60;79.90
4406;DHT22;2216;53.806;11.598;2022-12-16T17:11:33;-2.60;80.00
4406;DHT22;2216;53.806;11.598;2022-12-16T17:14:37;-2.60;80.00
4406;DHT22;2216;53.806;11.598;2022-12-16T17:17:21;-2.50;80.10
4406;DHT22;2216;53.806;11.598;2022-12-16T17:20:06;-2.70;80.10
4406;DHT22;2216;53.806;11.598;2022-12-16T17:22:52;-2.70;80.10
4406;DHT22;2216;53.806;11.598;2022-12-16T17:25:36;-2.70;80.10
4406;DHT22;2216;53.806;11.598;2022-12-16T17:28:20;-2.70;80.10
4406;DHT22;2216;53.806;11.598;2022-12-16T17:31:04;-2.70;80.10
4406;DHT22;2216;53.806;11.598;2022-12-16T17:33:48;-2.70;80.10
4406;DHT22;2216;53.806;11.598;2022-12-16T17:36:32;-2.70;80.00
4406;DHT22;2216;53.806;11.598;2022-12-16T17:39:17;-2.80;79.90
4406;DHT22;2216;53.806;11.598;2022-12-16T17:42:01;-2.80;79.70
4406;DHT22;2216;53.806;11.598;2022-12-16T17:44:45;-2.90;79.70
4406;DHT22;2216;53.806;11.598;2022-12-16T17:47:29;-2.90;79.70
4406;DHT22;2216;53.806;11.598;2022-12-16T17:50:13;-3.00;79.60
4406;DHT22;2216;53.806;11.598;2022-12-16T17:52:58;-3.00;79.60
4406;DHT22;2216;53.806;11.598;2022-12-16T17:55:43;-3.10;79.60
4406;DHT22;2216;53.806;11.598;2022-12-16T17:58:36;-3.10;79.50
4406;DHT22;2216;53.806;11.598;2022-12-16T18:01:21;-3.20;79.40
4406;DHT22;2216;53.806;11.598;2022-12-16T18:04:06;-3.20;79.30
4406;DHT22;2216;53.806;11.598;2022-12-16T18:06:50;-3.30;79.30
4406;DHT22;2216;53.806;11.598;2022-12-16T18:09:34;-3.40;79.30
4406;DHT22;2216;53.806;11.598;2022-12-16T18:12:19;-3.40;79.30
4406;DHT22;2216;53.806;11.598;2022-12-16T18:15:04;-3.40;79.30
4406;DHT22;2216;53.806;11.598;2022-12-16T18:17:49;-3.30;79.30
4406;DHT22;2216;53.806;11.598;2022-12-16T18:20:33;-3.60;79.10
4406;DHT22;2216;53.806;11.598;2022-12-16T18:23:18;-3.60;79.20
4406;DHT22;2216;53.806;11.598;2022-12-16T18:26:05;-3.70;79.00
4406;DHT22;2216;53.806;11.598;2022-12-16T18:28:50;-3.80;79.00
4406;DHT22;2216;53.806;11.598;2022-12-16T18:31:35;-3.90;79.60
4406;DHT22;2216;53.806;11.598;2022-12-16T18:34:20;-3.90;79.00
4406;DHT22;2216;53.806;11.598;2022-12-16T18:37:04;-4.00;78.90
4406;DHT22;2216;53.806;11.598;2022-12-16T18:39:48;-4.10;78.90
4406;DHT22;2216;53.806;11.598;2022-12-16T18:42:32;-4.10;79.00
4406;DHT22;2216;53.806;11.598;2022-12-16T18:45:16;-4.20;78.90
4406;DHT22;2216;53.806;11.598;2022-12-16T18:48:01;-4.20;79.00
4406;DHT22;2216;53.806;11.598;2022-12-16T18:50:56;-4.30;78.90
4406;DHT22;2216;53.806;11.598;2022-12-16T18:53:42;-4.30;78.90
4406;DHT22;2216;53.806;11.598;2022-12-16T18:56:27;-4.40;78.90
4406;DHT22;2216;53.806;11.598;2022-12-16T18:59:11;-4.50;78.90
4406;DHT22;2216;53.806;11.598;2022-12-16T19:01:55;-4.60;78.80
4406;DHT22;2216;53.806;11.598;2022-12-16T19:04:40;-4.60;78.90
4406;DHT22;2216;53.806;11.598;2022-12-16T19:07:24;-4.60;78.90
4406;DHT22;2216;53.806;11.598;2022-12-16T19:10:08;-4.70;78.80
4406;DHT22;2216;53.806;11.598;2022-12-16T19:12:57;-4.70;78.90
4406;DHT22;2216;53.806;11.598;2022-12-16T19:15:42;-4.80;78.90
4406;DHT22;2216;53.806;11.598;2022-12-16T19:18:35;-4.90;78.80
4406;DHT22;2216;53.806;11.598;2022-12-16T19:21:19;-4.90;78.80